METAR EVRA 091320Z 20009KT 9999 FEW020 06/04 Q0994 R18/290195 NOSIG =

Controllers Online

PositionControllerOnline
No controllers currently online

Booked ATC Today

No ATC booked yet.
Be the first for today!
* Times are UTC

The time is now

UTC: 

Local: 

Latvia vACC on twitter

Official vACC of:

  

Latvia vACC on Facebook